Sint-Katelijne-Waver, Belgium
Current Conditions -  °F | °C
As of 5:50 AM on Saturday 25 Oct 2014 (Local Time) from EBAW Reporting Station
Overcast Overcast  
Wind Chill: 54°   Ceiling: 600
Heat Index: 54°   Visibility: 4mi
Dew Point: 52°   Wind: 8mph
Humidity: 94%   Direction: 230°SW
Pressure: 30"   Gusts: NA
Location:  51.07°N, 4.53°E
Report Text: EBAW 250350Z AUTO 23007KT 6000 OVC006/// 12/11 Q1016
Loading
Personal Weather Stations






























Interactive Weather Map New forecast layout! Learn more

10-Day Weather Forecast

Advertisements
Track Severe Weather on mobile